sensor_id;sensor_type;location;lat;lon;timestamp;pressure;altitude;pressure_sealevel;temperature;humidity
15971;BME280;59785;52.582;13.892;2023-01-06T00:00:12;101353.56;;;2.40;100.00
15971;BME280;59785;52.582;13.892;2023-01-06T00:02:38;101349.38;;;2.35;100.00
15971;BME280;59785;52.582;13.892;2023-01-06T00:05:05;101343.56;;;2.29;100.00
15971;BME280;59785;52.582;13.892;2023-01-06T00:07:31;101342.44;;;2.17;100.00
15971;BME280;59785;52.582;13.892;2023-01-06T00:09:57;101361.91;;;2.16;100.00
15971;BME280;59785;52.582;13.892;2023-01-06T00:12:23;101358.22;;;2.03;100.00
15971;BME280;59785;52.582;13.892;2023-01-06T00:14:51;101349.03;;;1.76;100.00
15971;BME280;59785;52.582;13.892;2023-01-06T00:17:17;101353.66;;;1.55;100.00
15971;BME280;59785;52.582;13.892;2023-01-06T00:19:43;101353.22;;;1.47;100.00
15971;BME280;59785;52.582;13.892;2023-01-06T00:22:10;101348.59;;;1.35;100.00
15971;BME280;59785;52.582;13.892;2023-01-06T00:24:36;101352.25;;;1.15;100.00
15971;BME280;59785;52.582;13.892;2023-01-06T00:27:02;101355.44;;;1.22;100.00
15971;BME280;59785;52.582;13.892;2023-01-06T00:29:29;101354.19;;;1.29;100.00
15971;BME280;59785;52.582;13.892;2023-01-06T00:31:58;101362.81;;;1.15;100.00
15971;BME280;59785;52.582;13.892;2023-01-06T00:34:24;101356.84;;;0.94;100.00
15971;BME280;59785;52.582;13.892;2023-01-06T00:36:50;101350.44;;;0.81;100.00
15971;BME280;59785;52.582;13.892;2023-01-06T00:39:16;101353.69;;;0.68;100.00
15971;BME280;59785;52.582;13.892;2023-01-06T00:41:44;101356.91;;;0.56;100.00
15971;BME280;59785;52.582;13.892;2023-01-06T00:44:34;101349.69;;;0.42;100.00
15971;BME280;59785;52.582;13.892;2023-01-06T00:47:03;101356.09;;;0.36;100.00
15971;BME280;59785;52.582;13.892;2023-01-06T00:49:29;101353.69;;;0.32;100.00
15971;BME280;59785;52.582;13.892;2023-01-06T00:51:55;101345.91;;;0.29;100.00
15971;BME280;59785;52.582;13.892;2023-01-06T00:54:21;101340.94;;;0.23;100.00
15971;BME280;59785;52.582;13.892;2023-01-06T00:56:49;101343.63;;;0.21;100.00
15971;BME280;59785;52.582;13.892;2023-01-06T00:59:18;101342.78;;;0.21;100.00
15971;BME280;59785;52.582;13.892;2023-01-06T01:01:46;101343.78;;;0.18;100.00
15971;BME280;59785;52.582;13.892;2023-01-06T01:04:13;101340.28;;;0.17;100.00
15971;BME280;59785;52.582;13.892;2023-01-06T01:06:41;101342.66;;;0.24;100.00
15971;BME280;59785;52.582;13.892;2023-01-06T01:09:12;101338.00;;;0.29;100.00
15971;BME280;59785;52.582;13.892;2023-01-06T01:11:39;101339.66;;;0.31;100.00
15971;BME280;59785;52.582;13.892;2023-01-06T01:14:23;101332.78;;;0.27;100.00
15971;BME280;59785;52.582;13.892;2023-01-06T01:16:49;101331.09;;;0.26;100.00
15971;BME280;59785;52.582;13.892;2023-01-06T01:19:16;101344.00;;;0.32;100.00
15971;BME280;59785;52.582;13.892;2023-01-06T01:21:43;101332.94;;;0.43;100.00
15971;BME280;59785;52.582;13.892;2023-01-06T01:24:09;101351.09;;;0.49;100.00
15971;BME280;59785;52.582;13.892;2023-01-06T01:26:36;101347.84;;;0.62;100.00
15971;BME280;59785;52.582;13.892;2023-01-06T01:29:03;101349.09;;;0.72;100.00
15971;BME280;59785;52.582;13.892;2023-01-06T01:31:30;101339.97;;;0.79;100.00
15971;BME280;59785;52.582;13.892;2023-01-06T01:33:56;101328.66;;;0.77;100.00
15971;BME280;59785;52.582;13.892;2023-01-06T01:36:22;101330.34;;;0.61;100.00
15971;BME280;59785;52.582;13.892;2023-01-06T01:38:48;101331.31;;;0.58;100.00
15971;BME280;59785;52.582;13.892;2023-01-06T01:41:17;101333.53;;;0.67;100.00
15971;BME280;59785;52.582;13.892;2023-01-06T01:44:00;101332.53;;;0.87;100.00
15971;BME280;59785;52.582;13.892;2023-01-06T01:46:33;101335.09;;;0.89;100.00
15971;BME280;59785;52.582;13.892;2023-01-06T01:49:04;101348.59;;;1.00;100.00
15971;BME280;59785;52.582;13.892;2023-01-06T01:51:39;101348.75;;;0.97;100.00
15971;BME280;59785;52.582;13.892;2023-01-06T01:54:10;101350.47;;;0.98;100.00
15971;BME280;59785;52.582;13.892;2023-01-06T01:56:40;101351.00;;;1.05;100.00
15971;BME280;59785;52.582;13.892;2023-01-06T01:59:11;101351.63;;;1.10;100.00
15971;BME280;59785;52.582;13.892;2023-01-06T02:01:39;101350.41;;;1.17;100.00
15971;BME280;59785;52.582;13.892;2023-01-06T02:04:05;101350.41;;;1.17;100.00
15971;BME280;59785;52.582;13.892;2023-01-06T02:06:33;101352.16;;;1.16;100.00
15971;BME280;59785;52.582;13.892;2023-01-06T02:09:05;101339.53;;;1.23;100.00
15971;BME280;59785;52.582;13.892;2023-01-06T02:11:33;101343.63;;;1.29;100.00
15971;BME280;59785;52.582;13.892;2023-01-06T02:14:12;101344.16;;;1.18;100.00
15971;BME280;59785;52.582;13.892;2023-01-06T02:22:48;101338.38;;;1.11;100.00
15971;BME280;59785;52.582;13.892;2023-01-06T02:28:48;101318.03;;;1.13;100.00
15971;BME280;59785;52.582;13.892;2023-01-06T02:37:42;101311.78;;;1.32;100.00
15971;BME280;59785;52.582;13.892;2023-01-06T02:42:53;101316.72;;;1.38;100.00
15971;BME280;59785;52.582;13.892;2023-01-06T02:45:35;101312.84;;;1.45;100.00
15971;BME280;59785;52.582;13.892;2023-01-06T02:48:22;101313.91;;;1.58;100.00
15971;BME280;59785;52.582;13.892;2023-01-06T02:51:22;101303.19;;;1.62;100.00
15971;BME280;59785;52.582;13.892;2023-01-06T02:54:18;101298.97;;;1.57;100.00
15971;BME280;59785;52.582;13.892;2023-01-06T02:56:54;101294.66;;;1.56;100.00
15971;BME280;59785;52.582;13.892;2023-01-06T02:59:25;101299.94;;;1.56;100.00
15971;BME280;59785;52.582;13.892;2023-01-06T03:01:55;101291.06;;;1.57;100.00
15971;BME280;59785;52.582;13.892;2023-01-06T03:04:30;101300.38;;;1.65;100.00
15971;BME280;59785;52.582;13.892;2023-01-06T03:06:59;101298.00;;;1.76;100.00
15971;BME280;59785;52.582;13.892;2023-01-06T03:09:32;101282.66;;;1.83;100.00
15971;BME280;59785;52.582;13.892;2023-01-06T03:12:05;101281.66;;;1.85;100.00
15971;BME280;59785;52.582;13.892;2023-01-06T03:14:37;101283.25;;;1.88;100.00
15971;BME280;59785;52.582;13.892;2023-01-06T03:17:04;101277.63;;;1.94;100.00
15971;BME280;59785;52.582;13.892;2023-01-06T03:19:31;101268.59;;;1.98;100.00
15971;BME280;59785;52.582;13.892;2023-01-06T03:22:00;101269.78;;;1.92;100.00
15971;BME280;59785;52.582;13.892;2023-01-06T03:24:27;101264.50;;;1.92;100.00
15971;BME280;59785;52.582;13.892;2023-01-06T03:26:53;101272.97;;;1.99;100.00
15971;BME280;59785;52.582;13.892;2023-01-06T03:29:21;101273.38;;;2.07;100.00
15971;BME280;59785;52.582;13.892;2023-01-06T03:31:59;101268.50;;;2.15;100.00
15971;BME280;59785;52.582;13.892;2023-01-06T03:38:13;101253.94;;;2.24;100.00
15971;BME280;59785;52.582;13.892;2023-01-06T03:40:52;101259.69;;;2.31;100.00
15971;BME280;59785;52.582;13.892;2023-01-06T03:43:26;101259.09;;;2.42;100.00
15971;BME280;59785;52.582;13.892;2023-01-06T03:49:00;101261.72;;;2.58;100.00
15971;BME280;59785;52.582;13.892;2023-01-06T03:51:45;101249.91;;;2.63;100.00
15971;BME280;59785;52.582;13.892;2023-01-06T03:57:08;101246.94;;;2.84;100.00
15971;BME280;59785;52.582;13.892;2023-01-06T03:59:39;101243.44;;;2.83;100.00
15971;BME280;59785;52.582;13.892;2023-01-06T04:02:07;101240.97;;;2.80;100.00
15971;BME280;59785;52.582;13.892;2023-01-06T04:04:33;101235.88;;;2.77;100.00
15971;BME280;59785;52.582;13.892;2023-01-06T04:07:01;101232.00;;;2.83;100.00
15971;BME280;59785;52.582;13.892;2023-01-06T04:09:27;101230.88;;;2.87;100.00
15971;BME280;59785;52.582;13.892;2023-01-06T04:11:53;101220.75;;;2.93;100.00
15971;BME280;59785;52.582;13.892;2023-01-06T04:14:38;101215.28;;;2.96;100.00
15971;BME280;59785;52.582;13.892;2023-01-06T04:17:05;101221.16;;;3.02;100.00
15971;BME280;59785;52.582;13.892;2023-01-06T04:19:32;101218.81;;;3.11;100.00
15971;BME280;59785;52.582;13.892;2023-01-06T04:21:58;101211.63;;;3.13;100.00
15971;BME280;59785;52.582;13.892;2023-01-06T04:24:29;101214.00;;;3.04;100.00
15971;BME280;59785;52.582;13.892;2023-01-06T04:26:55;101220.03;;;3.06;100.00
15971;BME280;59785;52.582;13.892;2023-01-06T04:29:22;101215.88;;;3.16;100.00
15971;BME280;59785;52.582;13.892;2023-01-06T04:31:50;101213.06;;;3.19;100.00
15971;BME280;59785;52.582;13.892;2023-01-06T04:34:17;101213.97;;;3.18;100.00
15971;BME280;59785;52.582;13.892;2023-01-06T04:36:43;101211.41;;;3.16;100.00
15971;BME280;59785;52.582;13.892;2023-01-06T04:39:09;101201.59;;;3.19;100.00
15971;BME280;59785;52.582;13.892;2023-01-06T04:41:35;101203.38;;;3.18;100.00
15971;BME280;59785;52.582;13.892;2023-01-06T04:44:01;101201.09;;;3.26;100.00
15971;BME280;59785;52.582;13.892;2023-01-06T04:46:27;101200.28;;;3.26;100.00
15971;BME280;59785;52.582;13.892;2023-01-06T04:48:53;101196.88;;;3.24;100.00
15971;BME280;59785;52.582;13.892;2023-01-06T04:51:20;101189.69;;;3.26;100.00
15971;BME280;59785;52.582;13.892;2023-01-06T04:53:46;101190.59;;;3.25;100.00
15971;BME280;59785;52.582;13.892;2023-01-06T04:56:12;101186.06;;;3.27;100.00
15971;BME280;59785;52.582;13.892;2023-01-06T04:58:39;101188.34;;;3.19;100.00
15971;BME280;59785;52.582;13.892;2023-01-06T05:01:08;101189.09;;;3.21;100.00
15971;BME280;59785;52.582;13.892;2023-01-06T05:03:35;101186.06;;;3.27;100.00
15971;BME280;59785;52.582;13.892;2023-01-06T05:06:06;101186.06;;;3.27;100.00
15971;BME280;59785;52.582;13.892;2023-01-06T05:08:39;101184.84;;;3.32;100.00
15971;BME280;59785;52.582;13.892;2023-01-06T05:11:10;101174.25;;;3.32;100.00
15971;BME280;59785;52.582;13.892;2023-01-06T05:13:37;101171.50;;;3.34;100.00
15971;BME280;59785;52.582;13.892;2023-01-06T05:16:08;101165.28;;;3.35;100.00
15971;BME280;59785;52.582;13.892;2023-01-06T05:18:35;101164.97;;;3.40;100.00
15971;BME280;59785;52.582;13.892;2023-01-06T05:21:01;101159.00;;;3.36;100.00
15971;BME280;59785;52.582;13.892;2023-01-06T05:23:27;101154.19;;;3.43;100.00
15971;BME280;59785;52.582;13.892;2023-01-06T05:25:54;101146.06;;;3.31;100.00
15971;BME280;59785;52.582;13.892;2023-01-06T05:28:20;101146.53;;;3.38;100.00
15971;BME280;59785;52.582;13.892;2023-01-06T05:30:46;101146.72;;;3.35;100.00
15971;BME280;59785;52.582;13.892;2023-01-06T05:33:13;101153.53;;;3.39;100.00
15971;BME280;59785;52.582;13.892;2023-01-06T05:35:39;101144.84;;;3.37;100.00
15971;BME280;59785;52.582;13.892;2023-01-06T05:38:05;101148.03;;;3.42;100.00
15971;BME280;59785;52.582;13.892;2023-01-06T05:40:33;101145.94;;;3.47;100.00
15971;BME280;59785;52.582;13.892;2023-01-06T05:42:59;101137.50;;;3.55;100.00
15971;BME280;59785;52.582;13.892;2023-01-06T05:45:26;101135.28;;;3.62;100.00
15971;BME280;59785;52.582;13.892;2023-01-06T05:47:52;101133.25;;;3.52;100.00
15971;BME280;59785;52.582;13.892;2023-01-06T05:50:18;101129.13;;;3.48;100.00
15971;BME280;59785;52.582;13.892;2023-01-06T05:52:46;101124.56;;;3.50;100.00
15971;BME280;59785;52.582;13.892;2023-01-06T05:55:12;101122.66;;;3.52;100.00
15971;BME280;59785;52.582;13.892;2023-01-06T05:57:38;101115.16;;;3.59;100.00
15971;BME280;59785;52.582;13.892;2023-01-06T06:00:05;101121.84;;;3.65;100.00
15971;BME280;59785;52.582;13.892;2023-01-06T06:02:36;101116.25;;;3.69;100.00
15971;BME280;59785;52.582;13.892;2023-01-06T06:05:03;101115.09;;;3.73;100.00
15971;BME280;59785;52.582;13.892;2023-01-06T06:07:29;101105.38;;;3.74;100.00
15971;BME280;59785;52.582;13.892;2023-01-06T06:09:55;101098.25;;;3.74;100.00
15971;BME280;59785;52.582;13.892;2023-01-06T06:12:21;101096.94;;;3.67;100.00
15971;BME280;59785;52.582;13.892;2023-01-06T06:14:47;101101.75;;;3.75;100.00
15971;BME280;59785;52.582;13.892;2023-01-06T06:17:13;101110.69;;;3.87;100.00
15971;BME280;59785;52.582;13.892;2023-01-06T06:19:40;101104.34;;;3.89;100.00
15971;BME280;59785;52.582;13.892;2023-01-06T06:22:06;101106.88;;;3.91;100.00
15971;BME280;59785;52.582;13.892;2023-01-06T06:24:35;101104.88;;;3.94;100.00
15971;BME280;59785;52.582;13.892;2023-01-06T06:27:01;101104.03;;;3.94;100.00
15971;BME280;59785;52.582;13.892;2023-01-06T06:29:27;101096.84;;;3.96;100.00
15971;BME280;59785;52.582;13.892;2023-01-06T06:31:54;101101.50;;;3.92;100.00
15971;BME280;59785;52.582;13.892;2023-01-06T06:34:20;101093.75;;;3.89;100.00
15971;BME280;59785;52.582;13.892;2023-01-06T06:36:46;101085.81;;;3.89;100.00
15971;BME280;59785;52.582;13.892;2023-01-06T06:39:12;101074.22;;;3.90;100.00
15971;BME280;59785;52.582;13.892;2023-01-06T06:41:38;101074.03;;;3.93;100.00
15971;BME280;59785;52.582;13.892;2023-01-06T06:44:04;101071.81;;;4.00;100.00
15971;BME280;59785;52.582;13.892;2023-01-06T06:46:30;101065.34;;;4.04;100.00
15971;BME280;59785;52.582;13.892;2023-01-06T06:48:57;101069.38;;;4.10;100.00
15971;BME280;59785;52.582;13.892;2023-01-06T06:51:23;101067.28;;;4.15;100.00
15971;BME280;59785;52.582;13.892;2023-01-06T06:53:49;101066.88;;;4.21;100.00
15971;BME280;59785;52.582;13.892;2023-01-06T06:56:17;101062.19;;;4.25;100.00
15971;BME280;59785;52.582;13.892;2023-01-06T06:58:43;101072.16;;;4.21;100.00
15971;BME280;59785;52.582;13.892;2023-01-06T07:01:12;101075.47;;;4.25;100.00
15971;BME280;59785;52.582;13.892;2023-01-06T07:03:39;101077.28;;;4.24;100.00
15971;BME280;59785;52.582;13.892;2023-01-06T07:06:06;101066.31;;;4.16;100.00
15971;BME280;59785;52.582;13.892;2023-01-06T07:08:33;101068.31;;;4.12;100.00
15971;BME280;59785;52.582;13.892;2023-01-06T07:11:00;101059.00;;;4.07;100.00
15971;BME280;59785;52.582;13.892;2023-01-06T07:13:26;101057.94;;;4.09;100.00
15971;BME280;59785;52.582;13.892;2023-01-06T07:15:53;101052.31;;;4.14;100.00
15971;BME280;59785;52.582;13.892;2023-01-06T07:18:19;101053.06;;;4.16;100.00
15971;BME280;59785;52.582;13.892;2023-01-06T07:20:47;101054.31;;;4.10;100.00
15971;BME280;59785;52.582;13.892;2023-01-06T07:23:15;101039.16;;;4.00;100.00
15971;BME280;59785;52.582;13.892;2023-01-06T07:25:41;101042.31;;;3.92;100.00
15971;BME280;59785;52.582;13.892;2023-01-06T07:28:07;101041.91;;;3.85;100.00
15971;BME280;59785;52.582;13.892;2023-01-06T07:30:35;101035.81;;;3.83;100.00
15971;BME280;59785;52.582;13.892;2023-01-06T07:33:02;101034.97;;;3.83;100.00
15971;BME280;59785;52.582;13.892;2023-01-06T07:35:29;101035.81;;;3.83;100.00
15971;BME280;59785;52.582;13.892;2023-01-06T07:38:01;101043.78;;;3.83;100.00
15971;BME280;59785;52.582;13.892;2023-01-06T07:40:27;101042.00;;;3.84;100.00
15971;BME280;59785;52.582;13.892;2023-01-06T07:42:53;101036.97;;;3.79;100.00
15971;BME280;59785;52.582;13.892;2023-01-06T07:45:19;101048.47;;;3.80;100.00
15971;BME280;59785;52.582;13.892;2023-01-06T07:47:45;101039.34;;;3.84;100.00
15971;BME280;59785;52.582;13.892;2023-01-06T07:50:11;101035.81;;;3.83;100.00
15971;BME280;59785;52.582;13.892;2023-01-06T07:52:37;101031.16;;;3.87;100.00
15971;BME280;59785;52.582;13.892;2023-01-06T07:55:04;101026.59;;;3.89;100.00
15971;BME280;59785;52.582;13.892;2023-01-06T07:57:30;101027.81;;;3.98;100.00
15971;BME280;59785;52.582;13.892;2023-01-06T07:59:57;101022.50;;;3.98;100.00
15971;BME280;59785;52.582;13.892;2023-01-06T08:02:23;101030.75;;;3.93;100.00
15971;BME280;59785;52.582;13.892;2023-01-06T08:04:49;101026.31;;;3.93;100.00
15971;BME280;59785;52.582;13.892;2023-01-06T08:07:15;101027.81;;;3.98;100.00
15971;BME280;59785;52.582;13.892;2023-01-06T08:09:42;101030.88;;;4.04;100.00
15971;BME280;59785;52.582;13.892;2023-01-06T08:12:08;101048.91;;;4.12;100.00
15971;BME280;59785;52.582;13.892;2023-01-06T08:14:34;101041.41;;;4.19;100.00
15971;BME280;59785;52.582;13.892;2023-01-06T08:17:00;101039.69;;;4.18;100.00
15971;BME280;59785;52.582;13.892;2023-01-06T08:19:26;101037.25;;;4.02;100.00
15971;BME280;59785;52.582;13.892;2023-01-06T08:21:52;101036.50;;;4.00;100.00
15971;BME280;59785;52.582;13.892;2023-01-06T08:24:19;101034.06;;;4.09;100.00
15971;BME280;59785;52.582;13.892;2023-01-06T08:26:45;101037.38;;;4.13;100.00
15971;BME280;59785;52.582;13.892;2023-01-06T08:29:11;101026.13;;;4.09;100.00
15971;BME280;59785;52.582;13.892;2023-01-06T08:31:37;101028.22;;;4.04;100.00
15971;BME280;59785;52.582;13.892;2023-01-06T08:34:03;101029.09;;;4.05;100.00
15971;BME280;59785;52.582;13.892;2023-01-06T08:36:30;101018.81;;;4.13;100.00
15971;BME280;59785;52.582;13.892;2023-01-06T08:38:56;101022.84;;;4.19;100.00
15971;BME280;59785;52.582;13.892;2023-01-06T08:41:23;101025.28;;;4.22;100.00
15971;BME280;59785;52.582;13.892;2023-01-06T08:43:49;101020.50;;;4.14;100.00
15971;BME280;59785;52.582;13.892;2023-01-06T08:46:18;101022.63;;;4.09;100.00
15971;BME280;59785;52.582;13.892;2023-01-06T08:48:46;101026.31;;;4.06;100.00
15971;BME280;59785;52.582;13.892;2023-01-06T08:51:17;101010.44;;;4.19;100.00
15971;BME280;59785;52.582;13.892;2023-01-06T08:53:43;100992.72;;;4.32;100.00
15971;BME280;59785;52.582;13.892;2023-01-06T08:56:18;100987.81;;;4.39;100.00
15971;BME280;59785;52.582;13.892;2023-01-06T08:58:46;100993.66;;;4.31;100.00
15971;BME280;59785;52.582;13.892;2023-01-06T09:01:18;100992.56;;;4.47;100.00
